sensor_id;sensor_type;location;lat;lon;timestamp;temperature;humidity
44377;DHT22;30093;0.000;0.000;2022-10-16T00:02:47;14.30;1.00
44377;DHT22;30093;0.000;0.000;2022-10-16T00:06:35;14.30;99.90
44377;DHT22;30093;0.000;0.000;2022-10-16T00:10:24;14.30;99.90
44377;DHT22;30093;0.000;0.000;2022-10-16T00:14:15;14.20;99.90
44377;DHT22;30093;0.000;0.000;2022-10-16T00:18:04;14.10;1.00
44377;DHT22;30093;0.000;0.000;2022-10-16T00:21:53;14.20;1.00
44377;DHT22;30093;0.000;0.000;2022-10-16T00:26:07;14.10;1.00
44377;DHT22;30093;0.000;0.000;2022-10-16T00:29:55;13.90;1.00
44377;DHT22;30093;0.000;0.000;2022-10-16T00:33:44;14.00;1.00
44377;DHT22;30093;0.000;0.000;2022-10-16T00:37:32;14.00;99.90
44377;DHT22;30093;0.000;0.000;2022-10-16T00:41:21;14.00;1.00
44377;DHT22;30093;0.000;0.000;2022-10-16T00:45:10;14.00;99.90
44377;DHT22;30093;0.000;0.000;2022-10-16T00:49:05;14.00;99.90
44377;DHT22;30093;0.000;0.000;2022-10-16T00:52:55;13.90;1.00
44377;DHT22;30093;0.000;0.000;2022-10-16T00:56:44;13.90;1.00
44377;DHT22;30093;0.000;0.000;2022-10-16T01:00:33;13.90;1.00
44377;DHT22;30093;0.000;0.000;2022-10-16T01:04:23;13.90;1.00
44377;DHT22;30093;0.000;0.000;2022-10-16T01:08:27;13.90;99.90
44377;DHT22;30093;0.000;0.000;2022-10-16T01:12:28;13.90;99.90
44377;DHT22;30093;0.000;0.000;2022-10-16T01:16:38;13.90;99.90
44377;DHT22;30093;0.000;0.000;2022-10-16T01:24:48;14.10;1.00
44377;DHT22;30093;0.000;0.000;2022-10-16T01:29:06;14.10;1.00
44377;DHT22;30093;0.000;0.000;2022-10-16T01:36:53;14.10;1.00
44377;DHT22;30093;0.000;0.000;2022-10-16T01:40:49;14.20;99.90
44377;DHT22;30093;0.000;0.000;2022-10-16T01:44:39;14.30;1.00
44377;DHT22;30093;0.000;0.000;2022-10-16T01:48:30;14.40;1.00
44377;DHT22;30093;0.000;0.000;2022-10-16T01:52:23;14.40;1.00
44377;DHT22;30093;0.000;0.000;2022-10-16T01:56:15;14.40;1.00
44377;DHT22;30093;0.000;0.000;2022-10-16T02:00:08;14.50;1.00
44377;DHT22;30093;0.000;0.000;2022-10-16T02:04:56;14.60;99.90
44377;DHT22;30093;0.000;0.000;2022-10-16T02:08:17;14.60;12.20
44377;DHT22;30093;0.000;0.000;2022-10-16T02:12:12;14.60;1.00
44377;DHT22;30093;0.000;0.000;2022-10-16T02:16:01;14.70;1.00
44377;DHT22;30093;0.000;0.000;2022-10-16T02:19:53;14.70;1.00
44377;DHT22;30093;0.000;0.000;2022-10-16T02:24:01;14.70;1.00
44377;DHT22;30093;0.000;0.000;2022-10-16T02:28:15;14.70;1.00
44377;DHT22;30093;0.000;0.000;2022-10-16T02:32:06;14.70;1.00
44377;DHT22;30093;0.000;0.000;2022-10-16T02:35:57;14.70;1.00
44377;DHT22;30093;0.000;0.000;2022-10-16T02:39:46;14.70;1.00
44377;DHT22;30093;0.000;0.000;2022-10-16T02:43:34;14.80;1.00
44377;DHT22;30093;0.000;0.000;2022-10-16T02:47:23;14.80;99.90
44377;DHT22;30093;0.000;0.000;2022-10-16T02:51:12;14.90;13.60
44377;DHT22;30093;0.000;0.000;2022-10-16T02:55:00;14.90;1.00
44377;DHT22;30093;0.000;0.000;2022-10-16T02:58:48;14.90;1.00
44377;DHT22;30093;0.000;0.000;2022-10-16T03:02:38;14.90;1.00
44377;DHT22;30093;0.000;0.000;2022-10-16T03:06:26;14.90;1.00
44377;DHT22;30093;0.000;0.000;2022-10-16T03:10:14;14.90;1.00
44377;DHT22;30093;0.000;0.000;2022-10-16T03:14:03;15.00;1.00
44377;DHT22;30093;0.000;0.000;2022-10-16T03:17:51;15.00;1.00
44377;DHT22;30093;0.000;0.000;2022-10-16T03:21:39;15.00;1.00
44377;DHT22;30093;0.000;0.000;2022-10-16T03:25:27;14.90;1.00
44377;DHT22;30093;0.000;0.000;2022-10-16T03:29:15;14.90;1.00
44377;DHT22;30093;0.000;0.000;2022-10-16T03:33:03;14.80;1.00
44377;DHT22;30093;0.000;0.000;2022-10-16T03:36:51;14.80;1.00
44377;DHT22;30093;0.000;0.000;2022-10-16T03:40:40;14.80;1.00
44377;DHT22;30093;0.000;0.000;2022-10-16T03:44:28;14.90;1.00
44377;DHT22;30093;0.000;0.000;2022-10-16T03:48:17;14.90;1.00
44377;DHT22;30093;0.000;0.000;2022-10-16T03:52:06;14.90;1.00
44377;DHT22;30093;0.000;0.000;2022-10-16T03:55:54;14.90;1.00
44377;DHT22;30093;0.000;0.000;2022-10-16T03:59:42;14.90;99.90
44377;DHT22;30093;0.000;0.000;2022-10-16T04:03:31;14.80;1.00
44377;DHT22;30093;0.000;0.000;2022-10-16T04:07:20;14.60;1.00
44377;DHT22;30093;0.000;0.000;2022-10-16T04:11:09;14.50;59.10
44377;DHT22;30093;0.000;0.000;2022-10-16T04:14:57;14.50;99.90
44377;DHT22;30093;0.000;0.000;2022-10-16T04:18:45;14.40;99.90
44377;DHT22;30093;0.000;0.000;2022-10-16T04:22:34;14.40;99.90
44377;DHT22;30093;0.000;0.000;2022-10-16T04:26:22;14.40;1.00
44377;DHT22;30093;0.000;0.000;2022-10-16T04:30:11;14.30;1.00
44377;DHT22;30093;0.000;0.000;2022-10-16T04:33:59;14.30;1.00
44377;DHT22;30093;0.000;0.000;2022-10-16T04:37:47;14.30;1.00
44377;DHT22;30093;0.000;0.000;2022-10-16T04:41:36;14.20;1.00
44377;DHT22;30093;0.000;0.000;2022-10-16T04:45:24;14.10;26.30
44377;DHT22;30093;0.000;0.000;2022-10-16T04:49:13;14.10;99.90
44377;DHT22;30093;0.000;0.000;2022-10-16T04:53:01;14.10;99.90
44377;DHT22;30093;0.000;0.000;2022-10-16T04:56:49;14.00;99.90
44377;DHT22;30093;0.000;0.000;2022-10-16T05:00:39;14.10;99.90
44377;DHT22;30093;0.000;0.000;2022-10-16T05:04:28;14.00;99.90
44377;DHT22;30093;0.000;0.000;2022-10-16T05:08:16;14.10;1.00
44377;DHT22;30093;0.000;0.000;2022-10-16T05:12:06;14.20;1.00
44377;DHT22;30093;0.000;0.000;2022-10-16T05:15:54;14.10;1.00
44377;DHT22;30093;0.000;0.000;2022-10-16T05:19:43;14.10;1.00
44377;DHT22;30093;0.000;0.000;2022-10-16T05:23:36;14.00;1.00
44377;DHT22;30093;0.000;0.000;2022-10-16T05:27:24;14.00;1.00
44377;DHT22;30093;0.000;0.000;2022-10-16T05:31:13;14.10;1.00
44377;DHT22;30093;0.000;0.000;2022-10-16T05:35:02;14.10;1.00
44377;DHT22;30093;0.000;0.000;2022-10-16T05:38:51;14.10;1.00
44377;DHT22;30093;0.000;0.000;2022-10-16T05:42:40;14.10;1.00
44377;DHT22;30093;0.000;0.000;2022-10-16T05:46:29;14.20;99.90
44377;DHT22;30093;0.000;0.000;2022-10-16T05:50:17;14.20;99.90
44377;DHT22;30093;0.000;0.000;2022-10-16T05:54:05;14.30;1.00
44377;DHT22;30093;0.000;0.000;2022-10-16T05:57:57;14.40;1.00
44377;DHT22;30093;0.000;0.000;2022-10-16T06:01:45;14.50;99.90
44377;DHT22;30093;0.000;0.000;2022-10-16T06:05:33;14.70;99.90
44377;DHT22;30093;0.000;0.000;2022-10-16T06:09:22;14.80;1.00
44377;DHT22;30093;0.000;0.000;2022-10-16T06:13:11;15.00;1.00
44377;DHT22;30093;0.000;0.000;2022-10-16T06:17:00;15.00;99.90
44377;DHT22;30093;0.000;0.000;2022-10-16T06:20:49;15.10;99.90
44377;DHT22;30093;0.000;0.000;2022-10-16T06:24:37;15.00;1.00
44377;DHT22;30093;0.000;0.000;2022-10-16T06:28:26;15.10;99.90
44377;DHT22;30093;0.000;0.000;2022-10-16T06:32:16;15.10;99.90
44377;DHT22;30093;0.000;0.000;2022-10-16T06:36:10;15.30;99.90
44377;DHT22;30093;0.000;0.000;2022-10-16T06:39:58;15.50;1.00
44377;DHT22;30093;0.000;0.000;2022-10-16T06:43:48;15.90;1.00
44377;DHT22;30093;0.000;0.000;2022-10-16T06:47:37;16.00;99.90
44377;DHT22;30093;0.000;0.000;2022-10-16T06:51:26;16.30;44.30
44377;DHT22;30093;0.000;0.000;2022-10-16T06:55:15;16.70;1.00
44377;DHT22;30093;0.000;0.000;2022-10-16T06:59:04;18.10;1.00
44377;DHT22;30093;0.000;0.000;2022-10-16T07:02:52;18.80;89.00
44377;DHT22;30093;0.000;0.000;2022-10-16T07:06:42;17.50;99.90
44377;DHT22;30093;0.000;0.000;2022-10-16T07:10:31;16.80;1.00
44377;DHT22;30093;0.000;0.000;2022-10-16T07:14:20;16.30;96.90
44377;DHT22;30093;0.000;0.000;2022-10-16T07:18:09;16.20;99.90
44377;DHT22;30093;0.000;0.000;2022-10-16T07:21:57;16.00;1.00
44377;DHT22;30093;0.000;0.000;2022-10-16T07:25:45;15.80;99.90
44377;DHT22;30093;0.000;0.000;2022-10-16T07:29:41;15.60;1.00
44377;DHT22;30093;0.000;0.000;2022-10-16T07:33:32;15.40;1.00
44377;DHT22;30093;0.000;0.000;2022-10-16T07:37:22;15.30;99.90
44377;DHT22;30093;0.000;0.000;2022-10-16T07:41:13;15.20;1.00
44377;DHT22;30093;0.000;0.000;2022-10-16T07:45:01;15.20;1.00
44377;DHT22;30093;0.000;0.000;2022-10-16T07:48:51;15.20;1.00
44377;DHT22;30093;0.000;0.000;2022-10-16T07:52:39;15.20;1.00
44377;DHT22;30093;0.000;0.000;2022-10-16T07:56:27;15.30;99.90
44377;DHT22;30093;0.000;0.000;2022-10-16T08:00:16;15.30;1.00
44377;DHT22;30093;0.000;0.000;2022-10-16T08:04:05;15.50;99.90
44377;DHT22;30093;0.000;0.000;2022-10-16T08:07:54;15.70;1.00
44377;DHT22;30093;0.000;0.000;2022-10-16T08:11:42;15.90;99.90
44377;DHT22;30093;0.000;0.000;2022-10-16T08:15:30;16.10;9.40
44377;DHT22;30093;0.000;0.000;2022-10-16T08:19:18;16.20;28.90
44377;DHT22;30093;0.000;0.000;2022-10-16T08:23:06;16.40;15.00
44377;DHT22;30093;0.000;0.000;2022-10-16T08:26:55;16.60;25.30
44377;DHT22;30093;0.000;0.000;2022-10-16T08:30:43;16.80;1.00
44377;DHT22;30093;0.000;0.000;2022-10-16T08:34:31;17.40;99.90
44377;DHT22;30093;0.000;0.000;2022-10-16T08:38:20;18.00;1.00
44377;DHT22;30093;0.000;0.000;2022-10-16T08:46:54;20.00;99.90
44377;DHT22;30093;0.000;0.000;2022-10-16T08:50:51;22.90;1.00
44377;DHT22;30093;0.000;0.000;2022-10-16T08:54:45;23.40;1.00
44377;DHT22;30093;0.000;0.000;2022-10-16T08:58:35;24.00;1.00
44377;DHT22;30093;0.000;0.000;2022-10-16T09:02:34;25.20;1.00
44377;DHT22;30093;0.000;0.000;2022-10-16T09:06:39;24.90;1.00
44377;DHT22;30093;0.000;0.000;2022-10-16T09:11:14;24.30;1.00
44377;DHT22;30093;0.000;0.000;2022-10-16T09:22:37;22.40;1.00
44377;DHT22;30093;0.000;0.000;2022-10-16T09:26:26;22.10;1.00
44377;DHT22;30093;0.000;0.000;2022-10-16T09:30:20;21.70;1.00
44377;DHT22;30093;0.000;0.000;2022-10-16T09:38:28;20.70;1.00
44377;DHT22;30093;0.000;0.000;2022-10-16T09:42:32;20.70;1.00
44377;DHT22;30093;0.000;0.000;2022-10-16T09:46:29;20.70;1.00
44377;DHT22;30093;0.000;0.000;2022-10-16T09:50:25;20.70;1.00
44377;DHT22;30093;0.000;0.000;2022-10-16T09:54:20;20.80;1.00
44377;DHT22;30093;0.000;0.000;2022-10-16T09:58:13;20.80;1.00
44377;DHT22;30093;0.000;0.000;2022-10-16T10:02:04;20.80;1.00
44377;DHT22;30093;0.000;0.000;2022-10-16T10:06:03;20.90;1.00
44377;DHT22;30093;0.000;0.000;2022-10-16T10:09:55;20.90;1.00
44377;DHT22;30093;0.000;0.000;2022-10-16T10:13:45;21.00;1.00
44377;DHT22;30093;0.000;0.000;2022-10-16T10:17:33;21.00;1.00
44377;DHT22;30093;0.000;0.000;2022-10-16T10:21:22;21.00;10.90
44377;DHT22;30093;0.000;0.000;2022-10-16T10:29:23;21.10;1.00
44377;DHT22;30093;0.000;0.000;2022-10-16T10:37:51;21.00;1.00
44377;DHT22;30093;0.000;0.000;2022-10-16T10:42:06;21.10;1.00
44377;DHT22;30093;0.000;0.000;2022-10-16T10:46:02;21.30;1.00
44377;DHT22;30093;0.000;0.000;2022-10-16T10:58:23;21.40;1.00
44377;DHT22;30093;0.000;0.000;2022-10-16T11:02:40;21.40;1.00
44377;DHT22;30093;0.000;0.000;2022-10-16T11:06:36;21.60;1.00
44377;DHT22;30093;0.000;0.000;2022-10-16T11:11:20;21.30;1.00
44377;DHT22;30093;0.000;0.000;2022-10-16T11:15:02;21.30;1.00
44377;DHT22;30093;0.000;0.000;2022-10-16T11:23:18;20.90;1.00
44377;DHT22;30093;0.000;0.000;2022-10-16T11:27:14;20.80;1.00
44377;DHT22;30093;0.000;0.000;2022-10-16T11:31:23;20.70;1.00
44377;DHT22;30093;0.000;0.000;2022-10-16T11:35:22;20.60;1.00
44377;DHT22;30093;0.000;0.000;2022-10-16T11:39:19;20.60;1.00
44377;DHT22;30093;0.000;0.000;2022-10-16T11:43:17;20.70;1.00
44377;DHT22;30093;0.000;0.000;2022-10-16T11:51:39;20.90;1.00
44377;DHT22;30093;0.000;0.000;2022-10-16T11:55:43;20.90;1.00
44377;DHT22;30093;0.000;0.000;2022-10-16T11:59:49;20.60;1.00
44377;DHT22;30093;0.000;0.000;2022-10-16T12:08:14;20.30;1.00
44377;DHT22;30093;0.000;0.000;2022-10-16T12:12:03;20.00;1.00
44377;DHT22;30093;0.000;0.000;2022-10-16T12:15:51;19.90;1.00
44377;DHT22;30093;0.000;0.000;2022-10-16T12:19:39;19.90;1.00
44377;DHT22;30093;0.000;0.000;2022-10-16T12:23:28;19.90;1.00
44377;DHT22;30093;0.000;0.000;2022-10-16T12:27:31;20.10;1.00
44377;DHT22;30093;0.000;0.000;2022-10-16T12:31:20;20.20;1.00
44377;DHT22;30093;0.000;0.000;2022-10-16T12:35:25;20.30;1.00
44377;DHT22;30093;0.000;0.000;2022-10-16T12:39:24;20.30;1.00
44377;DHT22;30093;0.000;0.000;2022-10-16T12:43:40;20.30;1.00
44377;DHT22;30093;0.000;0.000;2022-10-16T12:51:44;20.10;1.00
44377;DHT22;30093;0.000;0.000;2022-10-16T13:04:06;20.00;25.40
44377;DHT22;30093;0.000;0.000;2022-10-16T13:16:35;20.10;48.10
44377;DHT22;30093;0.000;0.000;2022-10-16T13:20:54;20.10;40.80
44377;DHT22;30093;0.000;0.000;2022-10-16T13:28:51;20.20;35.40
44377;DHT22;30093;0.000;0.000;2022-10-16T13:32:43;20.40;27.00
44377;DHT22;30093;0.000;0.000;2022-10-16T13:36:46;20.50;16.40
44377;DHT22;30093;0.000;0.000;2022-10-16T13:40:35;20.40;39.80
44377;DHT22;30093;0.000;0.000;2022-10-16T13:44:24;20.10;37.00
44377;DHT22;30093;0.000;0.000;2022-10-16T13:48:13;19.80;99.40
44377;DHT22;30093;0.000;0.000;2022-10-16T13:52:02;19.60;99.90
44377;DHT22;30093;0.000;0.000;2022-10-16T13:55:51;19.50;99.90
44377;DHT22;30093;0.000;0.000;2022-10-16T13:59:39;19.30;99.90
44377;DHT22;30093;0.000;0.000;2022-10-16T14:03:29;19.30;99.90
44377;DHT22;30093;0.000;0.000;2022-10-16T14:07:29;19.30;1.00
44377;DHT22;30093;0.000;0.000;2022-10-16T14:11:23;19.40;1.00
44377;DHT22;30093;0.000;0.000;2022-10-16T14:15:19;19.50;99.90
44377;DHT22;30093;0.000;0.000;2022-10-16T14:27:35;19.60;99.90
44377;DHT22;30093;0.000;0.000;2022-10-16T14:31:32;19.80;99.90
44377;DHT22;30093;0.000;0.000;2022-10-16T14:35:25;19.80;99.90
44377;DHT22;30093;0.000;0.000;2022-10-16T14:39:19;19.80;99.90
44377;DHT22;30093;0.000;0.000;2022-10-16T14:43:20;19.70;99.90
44377;DHT22;30093;0.000;0.000;2022-10-16T14:47:16;19.60;99.90
44377;DHT22;30093;0.000;0.000;2022-10-16T14:51:08;19.50;99.90
44377;DHT22;30093;0.000;0.000;2022-10-16T14:54:57;19.30;99.90
44377;DHT22;30093;0.000;0.000;2022-10-16T14:58:45;19.20;99.90
44377;DHT22;30093;0.000;0.000;2022-10-16T15:02:35;19.10;1.00
44377;DHT22;30093;0.000;0.000;2022-10-16T15:06:24;18.90;1.00
44377;DHT22;30093;0.000;0.000;2022-10-16T15:10:13;18.90;1.00
44377;DHT22;30093;0.000;0.000;2022-10-16T15:14:03;18.80;1.00
44377;DHT22;30093;0.000;0.000;2022-10-16T15:17:52;18.70;1.00
44377;DHT22;30093;0.000;0.000;2022-10-16T15:21:43;18.60;1.00
44377;DHT22;30093;0.000;0.000;2022-10-16T15:25:38;18.50;1.00
44377;DHT22;30093;0.000;0.000;2022-10-16T15:29:30;18.50;1.00
44377;DHT22;30093;0.000;0.000;2022-10-16T15:33:22;18.40;1.00
44377;DHT22;30093;0.000;0.000;2022-10-16T15:37:11;18.30;1.00
44377;DHT22;30093;0.000;0.000;2022-10-16T15:41:01;18.20;1.00
44377;DHT22;30093;0.000;0.000;2022-10-16T15:44:50;18.10;1.00
44377;DHT22;30093;0.000;0.000;2022-10-16T15:48:38;18.00;99.90
44377;DHT22;30093;0.000;0.000;2022-10-16T15:52:26;17.80;99.90
44377;DHT22;30093;0.000;0.000;2022-10-16T15:56:17;17.70;99.90
44377;DHT22;30093;0.000;0.000;2022-10-16T16:00:08;17.60;99.90
44377;DHT22;30093;0.000;0.000;2022-10-16T16:04:00;17.60;99.90
44377;DHT22;30093;0.000;0.000;2022-10-16T16:07:50;17.60;99.90
44377;DHT22;30093;0.000;0.000;2022-10-16T16:11:39;17.60;99.90
44377;DHT22;30093;0.000;0.000;2022-10-16T16:15:27;17.60;1.00
44377;DHT22;30093;0.000;0.000;2022-10-16T16:19:16;17.50;1.00
44377;DHT22;30093;0.000;0.000;2022-10-16T16:23:08;17.50;1.00
44377;DHT22;30093;0.000;0.000;2022-10-16T16:26:57;17.50;1.00
44377;DHT22;30093;0.000;0.000;2022-10-16T16:30:50;17.50;1.00
44377;DHT22;30093;0.000;0.000;2022-10-16T16:34:39;17.50;1.00
44377;DHT22;30093;0.000;0.000;2022-10-16T16:38:27;17.50;1.00
44377;DHT22;30093;0.000;0.000;2022-10-16T16:42:16;17.50;1.00
44377;DHT22;30093;0.000;0.000;2022-10-16T16:46:05;17.50;99.90
44377;DHT22;30093;0.000;0.000;2022-10-16T16:49:54;17.50;99.90
44377;DHT22;30093;0.000;0.000;2022-10-16T16:53:48;17.50;99.90
44377;DHT22;30093;0.000;0.000;2022-10-16T16:57:37;17.50;99.90
44377;DHT22;30093;0.000;0.000;2022-10-16T17:01:27;17.50;1.00
44377;DHT22;30093;0.000;0.000;2022-10-16T17:05:17;17.50;99.90
44377;DHT22;30093;0.000;0.000;2022-10-16T17:09:06;17.50;99.90
44377;DHT22;30093;0.000;0.000;2022-10-16T17:12:55;17.30;99.90
44377;DHT22;30093;0.000;0.000;2022-10-16T17:16:43;17.60;99.90
44377;DHT22;30093;0.000;0.000;2022-10-16T17:20:35;17.60;99.90
44377;DHT22;30093;0.000;0.000;2022-10-16T17:24:24;17.50;99.90
44377;DHT22;30093;0.000;0.000;2022-10-16T17:28:13;17.50;99.90
44377;DHT22;30093;0.000;0.000;2022-10-16T17:32:01;17.50;99.90
44377;DHT22;30093;0.000;0.000;2022-10-16T17:35:49;17.50;99.90
44377;DHT22;30093;0.000;0.000;2022-10-16T17:39:38;17.60;99.90
44377;DHT22;30093;0.000;0.000;2022-10-16T17:43:26;17.50;99.90
44377;DHT22;30093;0.000;0.000;2022-10-16T17:47:15;17.40;99.90
44377;DHT22;30093;0.000;0.000;2022-10-16T17:51:05;17.30;99.90
44377;DHT22;30093;0.000;0.000;2022-10-16T17:54:54;17.30;99.90
44377;DHT22;30093;0.000;0.000;2022-10-16T17:58:43;17.20;99.90
44377;DHT22;30093;0.000;0.000;2022-10-16T18:02:31;17.10;99.90
44377;DHT22;30093;0.000;0.000;2022-10-16T18:06:21;17.00;1.00
44377;DHT22;30093;0.000;0.000;2022-10-16T18:10:09;16.90;1.00
44377;DHT22;30093;0.000;0.000;2022-10-16T18:13:59;16.80;1.00
44377;DHT22;30093;0.000;0.000;2022-10-16T18:17:48;16.70;1.00
44377;DHT22;30093;0.000;0.000;2022-10-16T18:21:36;16.70;50.10
44377;DHT22;30093;0.000;0.000;2022-10-16T18:25:25;16.70;37.90
44377;DHT22;30093;0.000;0.000;2022-10-16T18:29:13;16.60;96.80
44377;DHT22;30093;0.000;0.000;2022-10-16T18:33:01;16.60;80.70
44377;DHT22;30093;0.000;0.000;2022-10-16T18:36:49;16.60;1.00
44377;DHT22;30093;0.000;0.000;2022-10-16T18:40:38;16.60;1.00
44377;DHT22;30093;0.000;0.000;2022-10-16T18:44:27;16.60;1.00
44377;DHT22;30093;0.000;0.000;2022-10-16T18:48:18;16.60;1.00
44377;DHT22;30093;0.000;0.000;2022-10-16T18:52:07;16.60;1.00
44377;DHT22;30093;0.000;0.000;2022-10-16T18:55:55;16.60;1.00
44377;DHT22;30093;0.000;0.000;2022-10-16T18:59:43;16.60;1.00
44377;DHT22;30093;0.000;0.000;2022-10-16T19:03:33;16.60;1.00
44377;DHT22;30093;0.000;0.000;2022-10-16T19:07:21;16.60;1.00
44377;DHT22;30093;0.000;0.000;2022-10-16T19:11:21;16.60;1.00
44377;DHT22;30093;0.000;0.000;2022-10-16T19:15:10;16.60;1.00
44377;DHT22;30093;0.000;0.000;2022-10-16T19:19:01;16.70;1.00
44377;DHT22;30093;0.000;0.000;2022-10-16T19:22:50;16.70;1.00
44377;DHT22;30093;0.000;0.000;2022-10-16T19:26:42;16.70;1.00
44377;DHT22;30093;0.000;0.000;2022-10-16T19:30:30;16.70;1.00
44377;DHT22;30093;0.000;0.000;2022-10-16T19:34:22;16.70;1.00
44377;DHT22;30093;0.000;0.000;2022-10-16T19:38:10;16.70;1.00
44377;DHT22;30093;0.000;0.000;2022-10-16T19:41:58;16.70;99.90
44377;DHT22;30093;0.000;0.000;2022-10-16T19:45:46;16.70;99.90
44377;DHT22;30093;0.000;0.000;2022-10-16T19:49:34;16.80;99.90
44377;DHT22;30093;0.000;0.000;2022-10-16T19:53:23;17.00;99.90
44377;DHT22;30093;0.000;0.000;2022-10-16T19:57:12;16.80;99.90
44377;DHT22;30093;0.000;0.000;2022-10-16T20:01:01;16.80;99.90
44377;DHT22;30093;0.000;0.000;2022-10-16T20:04:49;16.70;99.90
44377;DHT22;30093;0.000;0.000;2022-10-16T20:08:40;16.70;99.90
44377;DHT22;30093;0.000;0.000;2022-10-16T20:12:28;16.60;99.90
44377;DHT22;30093;0.000;0.000;2022-10-16T20:16:17;16.60;1.00
44377;DHT22;30093;0.000;0.000;2022-10-16T20:20:06;16.50;1.00
44377;DHT22;30093;0.000;0.000;2022-10-16T20:23:56;16.50;1.00
44377;DHT22;30093;0.000;0.000;2022-10-16T20:27:44;16.50;1.00
44377;DHT22;30093;0.000;0.000;2022-10-16T20:31:35;16.30;99.90
44377;DHT22;30093;0.000;0.000;2022-10-16T20:35:23;16.30;99.90
44377;DHT22;30093;0.000;0.000;2022-10-16T20:39:12;16.20;99.90
44377;DHT22;30093;0.000;0.000;2022-10-16T20:43:01;16.10;1.00
44377;DHT22;30093;0.000;0.000;2022-10-16T20:46:53;16.00;1.00
44377;DHT22;30093;0.000;0.000;2022-10-16T20:50:42;16.00;1.00
44377;DHT22;30093;0.000;0.000;2022-10-16T20:54:31;16.00;1.00
44377;DHT22;30093;0.000;0.000;2022-10-16T20:58:20;15.90;22.90
44377;DHT22;30093;0.000;0.000;2022-10-16T21:02:09;15.90;95.70
44377;DHT22;30093;0.000;0.000;2022-10-16T21:06:01;15.80;99.90
44377;DHT22;30093;0.000;0.000;2022-10-16T21:09:49;15.80;69.90
44377;DHT22;30093;0.000;0.000;2022-10-16T21:13:38;15.80;2.20
44377;DHT22;30093;0.000;0.000;2022-10-16T21:17:27;15.90;1.00
44377;DHT22;30093;0.000;0.000;2022-10-16T21:21:35;15.90;1.00
44377;DHT22;30093;0.000;0.000;2022-10-16T21:25:25;16.00;1.00
44377;DHT22;30093;0.000;0.000;2022-10-16T21:29:13;16.00;99.90
44377;DHT22;30093;0.000;0.000;2022-10-16T21:33:02;16.10;99.90
44377;DHT22;30093;0.000;0.000;2022-10-16T21:36:51;16.10;99.90
44377;DHT22;30093;0.000;0.000;2022-10-16T21:40:39;16.20;99.90
44377;DHT22;30093;0.000;0.000;2022-10-16T21:44:27;16.20;61.70
44377;DHT22;30093;0.000;0.000;2022-10-16T21:48:16;16.20;20.20
44377;DHT22;30093;0.000;0.000;2022-10-16T21:52:06;16.10;40.20
44377;DHT22;30093;0.000;0.000;2022-10-16T21:55:54;16.20;51.20
44377;DHT22;30093;0.000;0.000;2022-10-16T21:59:43;15.90;72.60
44377;DHT22;30093;0.000;0.000;2022-10-16T22:03:32;16.00;99.90
44377;DHT22;30093;0.000;0.000;2022-10-16T22:07:20;15.90;1.00
44377;DHT22;30093;0.000;0.000;2022-10-16T22:11:14;15.90;1.00
44377;DHT22;30093;0.000;0.000;2022-10-16T22:15:02;15.90;99.90
44377;DHT22;30093;0.000;0.000;2022-10-16T22:18:52;15.90;99.90
44377;DHT22;30093;0.000;0.000;2022-10-16T22:22:40;15.80;1.00
44377;DHT22;30093;0.000;0.000;2022-10-16T22:26:28;15.70;1.00
44377;DHT22;30093;0.000;0.000;2022-10-16T22:30:17;15.70;1.00
44377;DHT22;30093;0.000;0.000;2022-10-16T22:34:07;15.60;1.00
44377;DHT22;30093;0.000;0.000;2022-10-16T22:37:55;15.70;1.00
44377;DHT22;30093;0.000;0.000;2022-10-16T22:41:44;15.50;18.90
44377;DHT22;30093;0.000;0.000;2022-10-16T22:45:35;15.50;99.90
44377;DHT22;30093;0.000;0.000;2022-10-16T22:49:23;15.50;1.00
44377;DHT22;30093;0.000;0.000;2022-10-16T22:53:12;15.50;1.00
44377;DHT22;30093;0.000;0.000;2022-10-16T22:57:00;15.50;1.00
44377;DHT22;30093;0.000;0.000;2022-10-16T23:00:49;15.50;27.70
44377;DHT22;30093;0.000;0.000;2022-10-16T23:04:37;15.30;99.90
44377;DHT22;30093;0.000;0.000;2022-10-16T23:08:25;15.20;1.00
44377;DHT22;30093;0.000;0.000;2022-10-16T23:12:13;15.10;1.00
44377;DHT22;30093;0.000;0.000;2022-10-16T23:16:02;15.10;1.00
44377;DHT22;30093;0.000;0.000;2022-10-16T23:19:51;15.10;1.00
44377;DHT22;30093;0.000;0.000;2022-10-16T23:23:41;15.20;1.00
44377;DHT22;30093;0.000;0.000;2022-10-16T23:27:29;15.20;1.00
44377;DHT22;30093;0.000;0.000;2022-10-16T23:31:18;15.20;99.90
44377;DHT22;30093;0.000;0.000;2022-10-16T23:35:06;15.20;99.90
44377;DHT22;30093;0.000;0.000;2022-10-16T23:38:55;15.10;99.90
44377;DHT22;30093;0.000;0.000;2022-10-16T23:42:43;15.10;99.90
44377;DHT22;30093;0.000;0.000;2022-10-16T23:46:32;15.10;99.90
44377;DHT22;30093;0.000;0.000;2022-10-16T23:50:20;14.10;99.90
44377;DHT22;30093;0.000;0.000;2022-10-16T23:54:09;15.10;1.00
44377;DHT22;30093;0.000;0.000;2022-10-16T23:57:57;15.20;1.00
